sensor_id;sensor_type;location;lat;lon;timestamp;temperature;humidity
22456;DHT22;11395;53.204;6.502;2023-05-15T00:01:10;23.10;67.10
22456;DHT22;11395;53.204;6.502;2023-05-15T00:03:36;23.10;67.10
22456;DHT22;11395;53.204;6.502;2023-05-15T00:06:02;23.10;67.00
22456;DHT22;11395;53.204;6.502;2023-05-15T00:08:28;23.10;67.10
22456;DHT22;11395;53.204;6.502;2023-05-15T00:10:54;23.10;67.00
22456;DHT22;11395;53.204;6.502;2023-05-15T00:13:20;23.10;67.10
22456;DHT22;11395;53.204;6.502;2023-05-15T00:15:46;23.10;67.00
22456;DHT22;11395;53.204;6.502;2023-05-15T00:18:12;23.10;67.00
22456;DHT22;11395;53.204;6.502;2023-05-15T00:20:39;23.10;67.00
22456;DHT22;11395;53.204;6.502;2023-05-15T00:23:05;23.00;67.00
22456;DHT22;11395;53.204;6.502;2023-05-15T00:25:31;23.00;67.00
22456;DHT22;11395;53.204;6.502;2023-05-15T00:27:57;23.00;67.00
22456;DHT22;11395;53.204;6.502;2023-05-15T00:30:23;23.00;67.00
22456;DHT22;11395;53.204;6.502;2023-05-15T00:32:49;23.00;67.00
22456;DHT22;11395;53.204;6.502;2023-05-15T00:35:17;23.00;67.00
22456;DHT22;11395;53.204;6.502;2023-05-15T00:37:43;23.00;67.00
22456;DHT22;11395;53.204;6.502;2023-05-15T00:40:11;23.00;67.10
22456;DHT22;11395;53.204;6.502;2023-05-15T00:42:45;22.90;67.10
22456;DHT22;11395;53.204;6.502;2023-05-15T00:45:12;22.90;67.10
22456;DHT22;11395;53.204;6.502;2023-05-15T00:47:39;22.90;67.00
22456;DHT22;11395;53.204;6.502;2023-05-15T00:50:08;22.80;67.00
22456;DHT22;11395;53.204;6.502;2023-05-15T00:52:35;22.80;67.10
22456;DHT22;11395;53.204;6.502;2023-05-15T00:55:03;22.80;67.10
22456;DHT22;11395;53.204;6.502;2023-05-15T00:57:30;22.80;67.20
22456;DHT22;11395;53.204;6.502;2023-05-15T00:59:58;22.80;67.10
22456;DHT22;11395;53.204;6.502;2023-05-15T01:02:26;22.80;67.20
22456;DHT22;11395;53.204;6.502;2023-05-15T01:04:52;22.70;67.10
22456;DHT22;11395;53.204;6.502;2023-05-15T01:07:18;22.80;67.90
22456;DHT22;11395;53.204;6.502;2023-05-15T01:09:46;22.70;67.20
22456;DHT22;11395;53.204;6.502;2023-05-15T01:12:14;22.70;67.20
22456;DHT22;11395;53.204;6.502;2023-05-15T01:14:41;22.70;67.30
22456;DHT22;11395;53.204;6.502;2023-05-15T01:17:08;22.70;67.30
22456;DHT22;11395;53.204;6.502;2023-05-15T01:19:34;22.70;67.30
22456;DHT22;11395;53.204;6.502;2023-05-15T01:30:41;22.60;67.20
22456;DHT22;11395;53.204;6.502;2023-05-15T01:33:39;22.70;67.40
22456;DHT22;11395;53.204;6.502;2023-05-15T01:36:15;22.60;67.30
22456;DHT22;11395;53.204;6.502;2023-05-15T01:38:50;22.60;67.40
22456;DHT22;11395;53.204;6.502;2023-05-15T01:41:45;22.60;67.40
22456;DHT22;11395;53.204;6.502;2023-05-15T01:44:36;22.60;67.30
22456;DHT22;11395;53.204;6.502;2023-05-15T01:47:09;22.60;67.20
22456;DHT22;11395;53.204;6.502;2023-05-15T01:49:37;22.60;67.30
22456;DHT22;11395;53.204;6.502;2023-05-15T01:52:15;22.60;67.30
22456;DHT22;11395;53.204;6.502;2023-05-15T01:54:43;22.60;67.30
22456;DHT22;11395;53.204;6.502;2023-05-15T01:57:12;22.60;67.40
22456;DHT22;11395;53.204;6.502;2023-05-15T01:59:40;22.60;67.30
22456;DHT22;11395;53.204;6.502;2023-05-15T02:02:09;22.50;67.30
22456;DHT22;11395;53.204;6.502;2023-05-15T02:04:36;22.50;67.30
22456;DHT22;11395;53.204;6.502;2023-05-15T02:07:03;22.50;67.40
22456;DHT22;11395;53.204;6.502;2023-05-15T02:09:31;22.50;67.50
22456;DHT22;11395;53.204;6.502;2023-05-15T02:12:00;22.50;67.40
22456;DHT22;11395;53.204;6.502;2023-05-15T02:14:30;22.50;67.50
22456;DHT22;11395;53.204;6.502;2023-05-15T02:16:57;22.50;67.50
22456;DHT22;11395;53.204;6.502;2023-05-15T02:19:23;22.50;67.40
22456;DHT22;11395;53.204;6.502;2023-05-15T02:21:49;22.50;67.40
22456;DHT22;11395;53.204;6.502;2023-05-15T02:24:16;22.40;67.40
22456;DHT22;11395;53.204;6.502;2023-05-15T02:26:48;22.50;67.50
22456;DHT22;11395;53.204;6.502;2023-05-15T02:29:20;22.40;67.40
22456;DHT22;11395;53.204;6.502;2023-05-15T02:37:16;22.40;67.50
22456;DHT22;11395;53.204;6.502;2023-05-15T02:39:45;22.40;67.50
22456;DHT22;11395;53.204;6.502;2023-05-15T02:42:13;22.40;67.50
22456;DHT22;11395;53.204;6.502;2023-05-15T02:44:41;22.40;67.60
22456;DHT22;11395;53.204;6.502;2023-05-15T02:47:09;22.40;67.60
22456;DHT22;11395;53.204;6.502;2023-05-15T02:49:35;22.30;67.50
22456;DHT22;11395;53.204;6.502;2023-05-15T02:52:03;22.30;67.40
22456;DHT22;11395;53.204;6.502;2023-05-15T02:54:29;22.40;67.40
22456;DHT22;11395;53.204;6.502;2023-05-15T02:56:55;22.30;67.40
22456;DHT22;11395;53.204;6.502;2023-05-15T02:59:22;22.30;67.40
22456;DHT22;11395;53.204;6.502;2023-05-15T03:01:48;22.30;67.50
22456;DHT22;11395;53.204;6.502;2023-05-15T03:04:14;22.30;67.50
22456;DHT22;11395;53.204;6.502;2023-05-15T03:06:40;22.30;67.50
22456;DHT22;11395;53.204;6.502;2023-05-15T03:09:07;22.20;67.40
22456;DHT22;11395;53.204;6.502;2023-05-15T03:11:33;22.20;67.60
22456;DHT22;11395;53.204;6.502;2023-05-15T03:13:59;22.20;67.60
22456;DHT22;11395;53.204;6.502;2023-05-15T03:16:26;22.20;67.70
22456;DHT22;11395;53.204;6.502;2023-05-15T03:18:52;22.20;67.80
22456;DHT22;11395;53.204;6.502;2023-05-15T03:21:19;22.20;67.80
22456;DHT22;11395;53.204;6.502;2023-05-15T03:23:45;22.20;67.80
22456;DHT22;11395;53.204;6.502;2023-05-15T03:26:11;22.20;67.70
22456;DHT22;11395;53.204;6.502;2023-05-15T03:28:37;22.10;67.70
22456;DHT22;11395;53.204;6.502;2023-05-15T03:31:03;22.10;67.70
22456;DHT22;11395;53.204;6.502;2023-05-15T03:33:30;22.10;67.60
22456;DHT22;11395;53.204;6.502;2023-05-15T03:35:56;22.10;67.70
22456;DHT22;11395;53.204;6.502;2023-05-15T03:38:22;22.10;67.70
22456;DHT22;11395;53.204;6.502;2023-05-15T03:40:48;22.10;67.70
22456;DHT22;11395;53.204;6.502;2023-05-15T03:43:15;22.00;67.70
22456;DHT22;11395;53.204;6.502;2023-05-15T03:45:41;22.00;67.70
22456;DHT22;11395;53.204;6.502;2023-05-15T03:48:07;22.10;67.70
22456;DHT22;11395;53.204;6.502;2023-05-15T03:50:33;22.00;67.60
22456;DHT22;11395;53.204;6.502;2023-05-15T03:52:59;22.00;67.60
22456;DHT22;11395;53.204;6.502;2023-05-15T03:55:25;22.00;67.60
22456;DHT22;11395;53.204;6.502;2023-05-15T03:57:52;22.00;67.60
22456;DHT22;11395;53.204;6.502;2023-05-15T04:00:18;22.00;67.60
22456;DHT22;11395;53.204;6.502;2023-05-15T04:02:44;21.90;67.60
22456;DHT22;11395;53.204;6.502;2023-05-15T04:05:10;21.90;67.60
22456;DHT22;11395;53.204;6.502;2023-05-15T04:07:36;22.00;67.70
22456;DHT22;11395;53.204;6.502;2023-05-15T04:10:03;22.00;67.30
22456;DHT22;11395;53.204;6.502;2023-05-15T04:12:32;22.10;67.10
22456;DHT22;11395;53.204;6.502;2023-05-15T04:17:45;22.30;66.70
22456;DHT22;11395;53.204;6.502;2023-05-15T04:20:12;22.40;67.30
22456;DHT22;11395;53.204;6.502;2023-05-15T04:22:42;22.50;66.30
22456;DHT22;11395;53.204;6.502;2023-05-15T04:25:09;22.60;66.10
22456;DHT22;11395;53.204;6.502;2023-05-15T04:27:37;22.80;65.90
22456;DHT22;11395;53.204;6.502;2023-05-15T04:30:04;22.90;65.80
22456;DHT22;11395;53.204;6.502;2023-05-15T04:32:31;23.00;65.40
22456;DHT22;11395;53.204;6.502;2023-05-15T04:34:59;23.20;65.20
22456;DHT22;11395;53.204;6.502;2023-05-15T04:37:26;23.30;65.00
22456;DHT22;11395;53.204;6.502;2023-05-15T04:39:53;23.40;64.70
22456;DHT22;11395;53.204;6.502;2023-05-15T04:42:19;23.50;64.50
22456;DHT22;11395;53.204;6.502;2023-05-15T04:44:45;23.60;64.40
22456;DHT22;11395;53.204;6.502;2023-05-15T04:47:12;23.60;64.20
22456;DHT22;11395;53.204;6.502;2023-05-15T04:49:40;23.70;64.00
22456;DHT22;11395;53.204;6.502;2023-05-15T04:52:06;23.80;63.80
22456;DHT22;11395;53.204;6.502;2023-05-15T04:54:32;23.80;63.60
22456;DHT22;11395;53.204;6.502;2023-05-15T04:56:59;23.90;63.50
22456;DHT22;11395;53.204;6.502;2023-05-15T04:59:25;23.90;63.40
22456;DHT22;11395;53.204;6.502;2023-05-15T05:01:53;23.90;63.20
22456;DHT22;11395;53.204;6.502;2023-05-15T05:04:19;24.00;63.20
22456;DHT22;11395;53.204;6.502;2023-05-15T05:06:46;24.00;63.00
22456;DHT22;11395;53.204;6.502;2023-05-15T05:09:12;24.00;63.00
22456;DHT22;11395;53.204;6.502;2023-05-15T05:11:39;24.10;63.00
22456;DHT22;11395;53.204;6.502;2023-05-15T05:14:09;24.10;62.80
22456;DHT22;11395;53.204;6.502;2023-05-15T05:16:36;24.20;62.60
22456;DHT22;11395;53.204;6.502;2023-05-15T05:19:02;24.20;62.50
22456;DHT22;11395;53.204;6.502;2023-05-15T05:21:29;24.20;62.40
22456;DHT22;11395;53.204;6.502;2023-05-15T05:23:55;24.20;62.20
22456;DHT22;11395;53.204;6.502;2023-05-15T05:26:21;24.20;62.20
22456;DHT22;11395;53.204;6.502;2023-05-15T05:28:48;24.20;63.10
22456;DHT22;11395;53.204;6.502;2023-05-15T05:31:14;24.20;62.30
22456;DHT22;11395;53.204;6.502;2023-05-15T05:33:40;24.20;62.30
22456;DHT22;11395;53.204;6.502;2023-05-15T05:36:06;24.10;62.30
22456;DHT22;11395;53.204;6.502;2023-05-15T05:38:33;24.20;62.30
22456;DHT22;11395;53.204;6.502;2023-05-15T05:40:59;24.20;63.20
22456;DHT22;11395;53.204;6.502;2023-05-15T05:43:26;24.20;62.30
22456;DHT22;11395;53.204;6.502;2023-05-15T05:45:52;24.10;62.20
22456;DHT22;11395;53.204;6.502;2023-05-15T05:48:18;24.10;62.30
22456;DHT22;11395;53.204;6.502;2023-05-15T05:50:44;24.20;62.30
22456;DHT22;11395;53.204;6.502;2023-05-15T05:53:10;24.20;62.10
22456;DHT22;11395;53.204;6.502;2023-05-15T05:55:37;24.30;62.20
22456;DHT22;11395;53.204;6.502;2023-05-15T05:58:03;24.40;62.30
22456;DHT22;11395;53.204;6.502;2023-05-15T06:00:29;24.40;62.20
22456;DHT22;11395;53.204;6.502;2023-05-15T06:02:58;24.50;62.30
22456;DHT22;11395;53.204;6.502;2023-05-15T06:05:24;24.60;62.20
22456;DHT22;11395;53.204;6.502;2023-05-15T06:07:51;24.60;62.20
22456;DHT22;11395;53.204;6.502;2023-05-15T06:10:19;24.70;62.00
22456;DHT22;11395;53.204;6.502;2023-05-15T06:12:45;24.70;61.70
22456;DHT22;11395;53.204;6.502;2023-05-15T06:15:11;24.80;61.60
22456;DHT22;11395;53.204;6.502;2023-05-15T06:17:38;24.80;61.60
22456;DHT22;11395;53.204;6.502;2023-05-15T06:20:05;24.90;61.50
22456;DHT22;11395;53.204;6.502;2023-05-15T06:22:38;24.90;61.50
22456;DHT22;11395;53.204;6.502;2023-05-15T06:25:05;24.90;61.40
22456;DHT22;11395;53.204;6.502;2023-05-15T06:27:32;24.90;61.30
22456;DHT22;11395;53.204;6.502;2023-05-15T06:29:58;24.90;61.40
22456;DHT22;11395;53.204;6.502;2023-05-15T06:32:25;24.90;61.40
22456;DHT22;11395;53.204;6.502;2023-05-15T06:34:51;24.90;61.40
22456;DHT22;11395;53.204;6.502;2023-05-15T06:37:17;25.00;62.30
22456;DHT22;11395;53.204;6.502;2023-05-15T06:39:43;24.80;61.30
22456;DHT22;11395;53.204;6.502;2023-05-15T06:42:09;24.80;61.40
22456;DHT22;11395;53.204;6.502;2023-05-15T06:44:36;24.80;62.40
22456;DHT22;11395;53.204;6.502;2023-05-15T06:47:02;24.80;61.50
22456;DHT22;11395;53.204;6.502;2023-05-15T06:49:28;24.80;61.40
22456;DHT22;11395;53.204;6.502;2023-05-15T06:51:54;24.90;61.30
22456;DHT22;11395;53.204;6.502;2023-05-15T06:54:20;24.90;61.00
22456;DHT22;11395;53.204;6.502;2023-05-15T06:56:46;24.90;60.90
22456;DHT22;11395;53.204;6.502;2023-05-15T06:59:12;24.90;60.90
22456;DHT22;11395;53.204;6.502;2023-05-15T07:01:38;24.90;61.10
22456;DHT22;11395;53.204;6.502;2023-05-15T07:04:05;24.90;61.00
22456;DHT22;11395;53.204;6.502;2023-05-15T07:06:31;24.90;61.00
22456;DHT22;11395;53.204;6.502;2023-05-15T07:08:58;25.00;60.90
22456;DHT22;11395;53.204;6.502;2023-05-15T07:11:24;25.00;60.70
22456;DHT22;11395;53.204;6.502;2023-05-15T07:13:51;25.00;60.60
22456;DHT22;11395;53.204;6.502;2023-05-15T07:16:18;25.10;60.40
22456;DHT22;11395;53.204;6.502;2023-05-15T07:18:44;25.20;60.30
22456;DHT22;11395;53.204;6.502;2023-05-15T07:21:10;25.20;60.20
22456;DHT22;11395;53.204;6.502;2023-05-15T07:23:36;25.30;60.20
22456;DHT22;11395;53.204;6.502;2023-05-15T07:26:02;25.50;59.70
22456;DHT22;11395;53.204;6.502;2023-05-15T07:28:28;25.70;59.10
22456;DHT22;11395;53.204;6.502;2023-05-15T07:30:55;25.80;59.30
22456;DHT22;11395;53.204;6.502;2023-05-15T07:33:21;25.80;59.40
22456;DHT22;11395;53.204;6.502;2023-05-15T07:35:47;25.90;59.50
22456;DHT22;11395;53.204;6.502;2023-05-15T07:38:13;26.00;59.00
22456;DHT22;11395;53.204;6.502;2023-05-15T07:40:39;26.00;59.10
22456;DHT22;11395;53.204;6.502;2023-05-15T07:43:05;26.10;59.00
22456;DHT22;11395;53.204;6.502;2023-05-15T07:45:31;26.20;58.90
22456;DHT22;11395;53.204;6.502;2023-05-15T07:47:57;26.20;58.80
22456;DHT22;11395;53.204;6.502;2023-05-15T07:50:23;26.20;58.60
22456;DHT22;11395;53.204;6.502;2023-05-15T07:52:50;26.30;58.50
22456;DHT22;11395;53.204;6.502;2023-05-15T07:55:16;26.50;58.30
22456;DHT22;11395;53.204;6.502;2023-05-15T07:57:42;26.70;57.80
22456;DHT22;11395;53.204;6.502;2023-05-15T08:00:09;26.80;57.50
22456;DHT22;11395;53.204;6.502;2023-05-15T08:02:40;26.80;57.40
22456;DHT22;11395;53.204;6.502;2023-05-15T08:05:07;26.70;57.20
22456;DHT22;11395;53.204;6.502;2023-05-15T08:07:34;26.90;57.50
22456;DHT22;11395;53.204;6.502;2023-05-15T08:10:00;27.40;56.70
22456;DHT22;11395;53.204;6.502;2023-05-15T08:12:26;28.20;54.80
22456;DHT22;11395;53.204;6.502;2023-05-15T08:14:53;28.90;53.50
22456;DHT22;11395;53.204;6.502;2023-05-15T08:17:21;29.30;52.50
22456;DHT22;11395;53.204;6.502;2023-05-15T08:19:47;29.20;52.80
22456;DHT22;11395;53.204;6.502;2023-05-15T08:22:14;28.70;53.70
22456;DHT22;11395;53.204;6.502;2023-05-15T08:24:40;28.20;54.50
22456;DHT22;11395;53.204;6.502;2023-05-15T08:27:07;27.80;55.20
22456;DHT22;11395;53.204;6.502;2023-05-15T08:29:34;27.70;55.40
22456;DHT22;11395;53.204;6.502;2023-05-15T08:32:01;28.30;55.00
22456;DHT22;11395;53.204;6.502;2023-05-15T08:34:28;28.60;54.20
22456;DHT22;11395;53.204;6.502;2023-05-15T08:36:55;28.50;54.20
22456;DHT22;11395;53.204;6.502;2023-05-15T08:39:21;28.70;54.20
22456;DHT22;11395;53.204;6.502;2023-05-15T08:42:09;29.60;52.70
22456;DHT22;11395;53.204;6.502;2023-05-15T08:44:39;30.00;51.80
22456;DHT22;11395;53.204;6.502;2023-05-15T08:47:06;30.50;50.80
22456;DHT22;11395;53.204;6.502;2023-05-15T08:49:39;30.30;50.90
22456;DHT22;11395;53.204;6.502;2023-05-15T08:52:08;29.70;51.60
22456;DHT22;11395;53.204;6.502;2023-05-15T08:54:35;29.20;52.10
22456;DHT22;11395;53.204;6.502;2023-05-15T08:57:01;29.30;52.50
22456;DHT22;11395;53.204;6.502;2023-05-15T08:59:28;30.10;51.40
22456;DHT22;11395;53.204;6.502;2023-05-15T09:01:55;30.40;50.50
22456;DHT22;11395;53.204;6.502;2023-05-15T09:04:21;29.80;50.60
22456;DHT22;11395;53.204;6.502;2023-05-15T09:06:48;29.00;51.90
22456;DHT22;11395;53.204;6.502;2023-05-15T09:09:15;28.60;52.90
22456;DHT22;11395;53.204;6.502;2023-05-15T09:11:44;28.10;53.60
22456;DHT22;11395;53.204;6.502;2023-05-15T09:14:10;27.60;54.60
22456;DHT22;11395;53.204;6.502;2023-05-15T09:16:37;27.20;55.40
22456;DHT22;11395;53.204;6.502;2023-05-15T09:19:07;26.90;56.10
22456;DHT22;11395;53.204;6.502;2023-05-15T09:21:35;26.60;56.70
22456;DHT22;11395;53.204;6.502;2023-05-15T09:26:48;26.20;57.50
22456;DHT22;11395;53.204;6.502;2023-05-15T09:29:26;26.10;57.80
22456;DHT22;11395;53.204;6.502;2023-05-15T09:31:54;26.00;58.10
22456;DHT22;11395;53.204;6.502;2023-05-15T09:34:33;25.90;58.60
22456;DHT22;11395;53.204;6.502;2023-05-15T09:37:02;25.90;58.60
22456;DHT22;11395;53.204;6.502;2023-05-15T09:39:29;25.90;58.80
22456;DHT22;11395;53.204;6.502;2023-05-15T09:42:06;25.80;58.90
22456;DHT22;11395;53.204;6.502;2023-05-15T09:44:32;25.80;59.00
22456;DHT22;11395;53.204;6.502;2023-05-15T09:47:00;25.70;59.00
22456;DHT22;11395;53.204;6.502;2023-05-15T09:49:30;25.70;59.20
22456;DHT22;11395;53.204;6.502;2023-05-15T09:52:00;25.60;59.20
22456;DHT22;11395;53.204;6.502;2023-05-15T09:54:27;25.60;59.40
22456;DHT22;11395;53.204;6.502;2023-05-15T09:56:55;25.60;59.50
22456;DHT22;11395;53.204;6.502;2023-05-15T09:59:22;25.60;59.50
22456;DHT22;11395;53.204;6.502;2023-05-15T10:01:49;25.50;59.50
22456;DHT22;11395;53.204;6.502;2023-05-15T10:04:16;25.50;59.60
22456;DHT22;11395;53.204;6.502;2023-05-15T10:06:44;25.60;59.60
22456;DHT22;11395;53.204;6.502;2023-05-15T10:09:12;25.50;59.60
22456;DHT22;11395;53.204;6.502;2023-05-15T10:11:40;25.50;59.70
22456;DHT22;11395;53.204;6.502;2023-05-15T10:14:10;25.50;59.70
22456;DHT22;11395;53.204;6.502;2023-05-15T10:16:37;25.50;59.90
22456;DHT22;11395;53.204;6.502;2023-05-15T10:19:06;25.50;59.80
22456;DHT22;11395;53.204;6.502;2023-05-15T10:21:34;25.50;59.90
22456;DHT22;11395;53.204;6.502;2023-05-15T10:24:01;25.50;59.70
22456;DHT22;11395;53.204;6.502;2023-05-15T10:26:36;25.50;59.90
22456;DHT22;11395;53.204;6.502;2023-05-15T10:29:08;25.50;59.90
22456;DHT22;11395;53.204;6.502;2023-05-15T10:31:34;25.50;60.00
22456;DHT22;11395;53.204;6.502;2023-05-15T10:34:02;25.50;60.10
22456;DHT22;11395;53.204;6.502;2023-05-15T10:36:31;25.50;60.00
22456;DHT22;11395;53.204;6.502;2023-05-15T10:39:03;25.50;60.00
22456;DHT22;11395;53.204;6.502;2023-05-15T10:41:31;25.50;59.90
22456;DHT22;11395;53.204;6.502;2023-05-15T10:43:58;25.50;60.00
22456;DHT22;11395;53.204;6.502;2023-05-15T10:46:26;25.50;60.00
22456;DHT22;11395;53.204;6.502;2023-05-15T10:48:52;25.50;60.10
22456;DHT22;11395;53.204;6.502;2023-05-15T10:51:29;25.50;60.10
22456;DHT22;11395;53.204;6.502;2023-05-15T10:53:56;25.50;60.00
22456;DHT22;11395;53.204;6.502;2023-05-15T10:56:28;25.50;60.00
22456;DHT22;11395;53.204;6.502;2023-05-15T10:58:55;25.60;60.00
22456;DHT22;11395;53.204;6.502;2023-05-15T11:01:31;25.70;60.00
22456;DHT22;11395;53.204;6.502;2023-05-15T11:06:34;25.70;60.00
22456;DHT22;11395;53.204;6.502;2023-05-15T11:09:36;25.60;59.90
22456;DHT22;11395;53.204;6.502;2023-05-15T11:12:05;25.60;59.90
22456;DHT22;11395;53.204;6.502;2023-05-15T11:17:04;25.60;60.00
22456;DHT22;11395;53.204;6.502;2023-05-15T11:22:54;25.60;59.90
22456;DHT22;11395;53.204;6.502;2023-05-15T11:25:08;25.70;59.90
22456;DHT22;11395;53.204;6.502;2023-05-15T11:32:59;25.70;59.90
22456;DHT22;11395;53.204;6.502;2023-05-15T11:35:28;25.70;59.80
22456;DHT22;11395;53.204;6.502;2023-05-15T11:37:57;25.70;59.80
22456;DHT22;11395;53.204;6.502;2023-05-15T11:40:26;25.70;59.90
22456;DHT22;11395;53.204;6.502;2023-05-15T11:43:06;25.70;59.90
22456;DHT22;11395;53.204;6.502;2023-05-15T11:45:35;25.70;60.00
22456;DHT22;11395;53.204;6.502;2023-05-15T11:48:06;25.70;60.00
22456;DHT22;11395;53.204;6.502;2023-05-15T11:50:33;25.70;60.00
22456;DHT22;11395;53.204;6.502;2023-05-15T11:53:08;25.70;59.90
22456;DHT22;11395;53.204;6.502;2023-05-15T11:55:40;25.70;59.90
22456;DHT22;11395;53.204;6.502;2023-05-15T11:58:17;25.70;59.90
22456;DHT22;11395;53.204;6.502;2023-05-15T12:00:45;25.70;60.00
22456;DHT22;11395;53.204;6.502;2023-05-15T12:03:26;25.70;59.90
22456;DHT22;11395;53.204;6.502;2023-05-15T12:05:53;25.70;60.00
22456;DHT22;11395;53.204;6.502;2023-05-15T12:08:20;25.70;60.00
22456;DHT22;11395;53.204;6.502;2023-05-15T12:10:46;25.70;60.60
22456;DHT22;11395;53.204;6.502;2023-05-15T12:13:14;25.80;60.90
22456;DHT22;11395;53.204;6.502;2023-05-15T12:15:42;25.80;61.10
22456;DHT22;11395;53.204;6.502;2023-05-15T12:18:09;25.80;61.60
22456;DHT22;11395;53.204;6.502;2023-05-15T12:20:36;25.80;60.70
22456;DHT22;11395;53.204;6.502;2023-05-15T12:23:04;25.90;60.60
22456;DHT22;11395;53.204;6.502;2023-05-15T12:25:32;25.90;60.40
22456;DHT22;11395;53.204;6.502;2023-05-15T12:28:00;25.90;60.50
22456;DHT22;11395;53.204;6.502;2023-05-15T12:30:32;25.90;60.40
22456;DHT22;11395;53.204;6.502;2023-05-15T12:33:03;25.90;60.70
22456;DHT22;11395;53.204;6.502;2023-05-15T12:35:44;25.90;60.90
22456;DHT22;11395;53.204;6.502;2023-05-15T12:38:15;25.90;60.70
22456;DHT22;11395;53.204;6.502;2023-05-15T12:40:43;25.90;60.60
22456;DHT22;11395;53.204;6.502;2023-05-15T12:43:10;25.90;60.50
22456;DHT22;11395;53.204;6.502;2023-05-15T12:45:40;25.90;60.40
22456;DHT22;11395;53.204;6.502;2023-05-15T12:48:06;25.90;60.40
22456;DHT22;11395;53.204;6.502;2023-05-15T12:50:34;25.90;60.40
22456;DHT22;11395;53.204;6.502;2023-05-15T12:53:02;25.90;60.40
22456;DHT22;11395;53.204;6.502;2023-05-15T12:55:33;25.90;60.50
22456;DHT22;11395;53.204;6.502;2023-05-15T12:58:03;25.90;60.60
22456;DHT22;11395;53.204;6.502;2023-05-15T13:00:36;25.90;60.60
22456;DHT22;11395;53.204;6.502;2023-05-15T13:03:03;25.80;60.50
22456;DHT22;11395;53.204;6.502;2023-05-15T13:05:36;25.80;60.50
22456;DHT22;11395;53.204;6.502;2023-05-15T13:08:04;25.80;60.40
22456;DHT22;11395;53.204;6.502;2023-05-15T13:10:33;25.80;60.60
22456;DHT22;11395;53.204;6.502;2023-05-15T13:13:00;25.80;60.50
22456;DHT22;11395;53.204;6.502;2023-05-15T13:15:46;25.70;60.50
22456;DHT22;11395;53.204;6.502;2023-05-15T13:18:15;25.70;60.50
22456;DHT22;11395;53.204;6.502;2023-05-15T13:20:46;25.70;60.50
22456;DHT22;11395;53.204;6.502;2023-05-15T13:23:15;25.70;60.40
22456;DHT22;11395;53.204;6.502;2023-05-15T13:25:42;25.70;60.40
22456;DHT22;11395;53.204;6.502;2023-05-15T13:28:09;25.70;60.40
22456;DHT22;11395;53.204;6.502;2023-05-15T13:30:36;25.70;60.30
22456;DHT22;11395;53.204;6.502;2023-05-15T13:33:04;25.70;60.30
22456;DHT22;11395;53.204;6.502;2023-05-15T13:35:30;25.70;60.30
22456;DHT22;11395;53.204;6.502;2023-05-15T13:37:56;25.70;60.30
22456;DHT22;11395;53.204;6.502;2023-05-15T13:40:22;25.70;60.30
22456;DHT22;11395;53.204;6.502;2023-05-15T13:42:48;25.60;60.30
22456;DHT22;11395;53.204;6.502;2023-05-15T13:45:15;25.60;60.30
22456;DHT22;11395;53.204;6.502;2023-05-15T13:47:42;25.60;60.30
22456;DHT22;11395;53.204;6.502;2023-05-15T13:50:10;25.60;60.30
22456;DHT22;11395;53.204;6.502;2023-05-15T13:52:38;25.60;60.30
22456;DHT22;11395;53.204;6.502;2023-05-15T13:55:05;25.60;60.20
22456;DHT22;11395;53.204;6.502;2023-05-15T13:57:32;25.60;60.20
22456;DHT22;11395;53.204;6.502;2023-05-15T13:59:58;25.60;60.10
22456;DHT22;11395;53.204;6.502;2023-05-15T14:02:24;25.60;60.00
22456;DHT22;11395;53.204;6.502;2023-05-15T14:04:52;25.60;60.00
22456;DHT22;11395;53.204;6.502;2023-05-15T14:07:21;25.60;59.90
22456;DHT22;11395;53.204;6.502;2023-05-15T14:09:48;25.60;59.90
22456;DHT22;11395;53.204;6.502;2023-05-15T14:12:14;25.70;59.90
22456;DHT22;11395;53.204;6.502;2023-05-15T14:14:40;25.60;59.80
22456;DHT22;11395;53.204;6.502;2023-05-15T14:17:06;25.60;59.80
22456;DHT22;11395;53.204;6.502;2023-05-15T14:19:33;25.60;59.80
22456;DHT22;11395;53.204;6.502;2023-05-15T14:21:59;25.60;59.90
22456;DHT22;11395;53.204;6.502;2023-05-15T14:24:26;25.50;60.00
22456;DHT22;11395;53.204;6.502;2023-05-15T14:26:52;25.50;60.00
22456;DHT22;11395;53.204;6.502;2023-05-15T14:29:18;25.50;60.00
22456;DHT22;11395;53.204;6.502;2023-05-15T14:31:44;25.50;60.00
22456;DHT22;11395;53.204;6.502;2023-05-15T14:34:10;25.50;60.10
22456;DHT22;11395;53.204;6.502;2023-05-15T14:36:36;25.50;60.10
22456;DHT22;11395;53.204;6.502;2023-05-15T14:39:02;25.50;60.10
22456;DHT22;11395;53.204;6.502;2023-05-15T14:41:29;25.50;60.10
22456;DHT22;11395;53.204;6.502;2023-05-15T14:43:55;25.50;60.00
22456;DHT22;11395;53.204;6.502;2023-05-15T14:46:21;25.50;59.90
22456;DHT22;11395;53.204;6.502;2023-05-15T14:48:47;25.50;59.90
22456;DHT22;11395;53.204;6.502;2023-05-15T14:51:13;25.50;59.90
22456;DHT22;11395;53.204;6.502;2023-05-15T14:53:40;25.50;60.00
22456;DHT22;11395;53.204;6.502;2023-05-15T14:56:06;25.50;60.00
22456;DHT22;11395;53.204;6.502;2023-05-15T14:58:32;25.50;59.90
22456;DHT22;11395;53.204;6.502;2023-05-15T15:00:58;25.50;59.90
22456;DHT22;11395;53.204;6.502;2023-05-15T15:03:24;25.40;60.00
22456;DHT22;11395;53.204;6.502;2023-05-15T15:05:50;25.40;60.00
22456;DHT22;11395;53.204;6.502;2023-05-15T15:08:16;25.40;60.80
22456;DHT22;11395;53.204;6.502;2023-05-15T15:10:43;25.30;60.00
22456;DHT22;11395;53.204;6.502;2023-05-15T15:13:09;25.30;60.00
22456;DHT22;11395;53.204;6.502;2023-05-15T15:15:36;25.20;60.20
22456;DHT22;11395;53.204;6.502;2023-05-15T15:18:03;25.20;60.60
22456;DHT22;11395;53.204;6.502;2023-05-15T15:20:29;25.10;60.70
22456;DHT22;11395;53.204;6.502;2023-05-15T15:22:55;25.10;60.90
22456;DHT22;11395;53.204;6.502;2023-05-15T15:25:22;25.00;60.90
22456;DHT22;11395;53.204;6.502;2023-05-15T15:27:48;25.00;60.90
22456;DHT22;11395;53.204;6.502;2023-05-15T15:30:15;24.90;61.00
22456;DHT22;11395;53.204;6.502;2023-05-15T15:32:43;24.90;61.50
22456;DHT22;11395;53.204;6.502;2023-05-15T15:35:10;24.90;61.40
22456;DHT22;11395;53.204;6.502;2023-05-15T15:37:37;24.80;61.60
22456;DHT22;11395;53.204;6.502;2023-05-15T15:40:05;24.80;61.70
22456;DHT22;11395;53.204;6.502;2023-05-15T15:42:33;24.70;61.70
22456;DHT22;11395;53.204;6.502;2023-05-15T15:44:59;24.70;61.90
22456;DHT22;11395;53.204;6.502;2023-05-15T15:47:26;24.70;62.10
22456;DHT22;11395;53.204;6.502;2023-05-15T15:49:54;24.60;62.10
22456;DHT22;11395;53.204;6.502;2023-05-15T15:52:20;24.60;62.50
22456;DHT22;11395;53.204;6.502;2023-05-15T15:54:46;24.60;62.80
22456;DHT22;11395;53.204;6.502;2023-05-15T15:57:14;24.50;62.60
22456;DHT22;11395;53.204;6.502;2023-05-15T15:59:40;24.50;62.90
22456;DHT22;11395;53.204;6.502;2023-05-15T16:02:07;24.50;62.90
22456;DHT22;11395;53.204;6.502;2023-05-15T16:04:34;24.50;62.80
22456;DHT22;11395;53.204;6.502;2023-05-15T16:07:01;24.50;62.90